createdAt,value
2023-04-05T00:01:20.305Z,100896.77
2023-04-05T00:03:48.813Z,100891.35
2023-04-05T00:06:17.330Z,100891.42
2023-04-05T00:08:50.356Z,100888.57
2023-04-05T00:11:18.876Z,100886.96
2023-04-05T00:13:47.380Z,100885.32
2023-04-05T00:16:17.800Z,100884.23
2023-04-05T00:18:51.544Z,100880.22
2023-04-05T00:21:24.606Z,100880.14
2023-04-05T00:23:57.163Z,100874.76
2023-04-05T00:26:26.165Z,100876.24
2023-04-05T00:28:54.513Z,100872.92
2023-04-05T00:31:22.943Z,100876.48
2023-04-05T00:33:51.905Z,100874.55
2023-04-05T00:36:21.116Z,100875.73
2023-04-05T00:38:49.869Z,100874.89
2023-04-05T00:41:18.471Z,100876.78
2023-04-05T00:43:47.282Z,100876.96
2023-04-05T00:46:16.950Z,100875.30
2023-04-05T00:48:45.601Z,100873.66
2023-04-05T00:51:13.972Z,100873.89
2023-04-05T00:53:43.147Z,100872.25
2023-04-05T00:56:13.944Z,100871.45
2023-04-05T00:58:42.641Z,100867.04
2023-04-05T01:01:20.595Z,100867.08
2023-04-05T01:04:11.424Z,100866.09
2023-04-05T01:07:07.639Z,100867.35
2023-04-05T01:09:55.944Z,100869.48
2023-04-05T01:12:28.397Z,100862.34
2023-04-05T01:14:56.781Z,100861.85
2023-04-05T01:17:36.797Z,100856.41
2023-04-05T01:20:13.005Z,100853.69
2023-04-05T01:23:06.599Z,100849.45
2023-04-05T01:26:11.320Z,100847.97
2023-04-05T01:29:08.071Z,100846.98
2023-04-05T01:32:18.370Z,100839.88
2023-04-05T01:35:17.068Z,100840.83
2023-04-05T01:37:51.008Z,100842.96
2023-04-05T01:40:19.964Z,100838.40
2023-04-05T01:42:48.394Z,100841.38
2023-04-05T01:45:16.801Z,100841.61
2023-04-05T01:47:45.270Z,100835.52
2023-04-05T01:50:13.630Z,100835.08
2023-04-05T01:52:41.944Z,100830.01
2023-04-05T01:55:10.365Z,100829.04
2023-04-05T01:57:39.166Z,100832.35
2023-04-05T02:00:08.706Z,100827.27
2023-04-05T02:02:37.154Z,100826.46
2023-04-05T02:05:06.107Z,100831.64
2023-04-05T02:07:34.684Z,100831.70
2023-04-05T02:10:03.388Z,100823.88
2023-04-05T02:12:31.922Z,100824.95
2023-04-05T02:15:00.925Z,100830.02
2023-04-05T02:17:34.156Z,100827.33
2023-04-05T02:20:04.594Z,100830.61
2023-04-05T02:22:32.917Z,100828.25
2023-04-05T02:25:01.712Z,100825.54
2023-04-05T02:27:30.766Z,100819.23
2023-04-05T02:29:59.101Z,100820.63
2023-04-05T02:32:27.617Z,100819.26
2023-04-05T02:34:56.264Z,100817.89
2023-04-05T02:37:26.383Z,100814.48
2023-04-05T02:39:54.791Z,100814.83
2023-04-05T02:42:23.130Z,100810.21
2023-04-05T02:44:52.644Z,100808.01
2023-04-05T02:47:21.741Z,100809.75
2023-04-05T02:49:50.364Z,100803.95
2023-04-05T02:52:18.732Z,100802.98
2023-04-05T02:54:47.080Z,100799.94
2023-04-05T02:57:16.345Z,100797.74
2023-04-05T02:59:45.293Z,100793.98
2023-04-05T03:02:13.652Z,100788.54
2023-04-05T03:04:44.954Z,100788.40
2023-04-05T03:07:18.695Z,100792.73
2023-04-05T03:09:47.549Z,100794.70
2023-04-05T03:12:15.956Z,100796.11
2023-04-05T03:14:46.107Z,100794.78
2023-04-05T03:17:14.566Z,100790.36
2023-04-05T03:19:42.913Z,100790.88
2023-04-05T03:22:11.327Z,100795.52
2023-04-05T03:24:39.701Z,100796.92
2023-04-05T03:27:08.127Z,100796.77
2023-04-05T03:29:36.438Z,100798.34
2023-04-05T03:32:05.273Z,100799.90
2023-04-05T03:34:33.576Z,100799.75
2023-04-05T03:37:01.878Z,100794.09
2023-04-05T03:39:30.303Z,100792.23
2023-04-05T03:41:58.801Z,100789.35
2023-04-05T03:44:27.216Z,100792.39
2023-04-05T03:46:55.598Z,100785.87
2023-04-05T03:49:25.106Z,100786.37
2023-04-05T03:51:53.430Z,100787.19
2023-04-05T03:54:22.006Z,100790.73
2023-04-05T03:56:50.600Z,100793.80
2023-04-05T03:59:19.051Z,100790.33
2023-04-05T04:01:48.192Z,100787.00
2023-04-05T04:04:16.543Z,100787.81
2023-04-05T04:06:44.880Z,100793.44
2023-04-05T04:09:13.181Z,100797.89
2023-04-05T04:11:41.584Z,100796.04
2023-04-05T04:14:09.863Z,100793.83
2023-04-05T04:16:38.212Z,100795.23
2023-04-05T04:19:06.518Z,100797.48
2023-04-05T04:21:35.793Z,100796.81
2023-04-05T04:24:04.615Z,100797.36
2023-04-05T04:26:37.519Z,100798.25
2023-04-05T04:29:06.856Z,100798.82
2023-04-05T04:31:35.260Z,100805.86
2023-04-05T04:34:05.576Z,100812.73
2023-04-05T04:36:37.019Z,100817.73
2023-04-05T04:39:08.103Z,100816.52
2023-04-05T04:41:38.277Z,100821.13
2023-04-05T04:44:06.638Z,100822.10
2023-04-05T04:46:42.694Z,100815.89
2023-04-05T04:49:11.195Z,100818.22
2023-04-05T04:51:39.737Z,100816.63
2023-04-05T04:54:08.061Z,100818.95
2023-04-05T04:56:36.710Z,100820.95
2023-04-05T04:59:05.052Z,100823.64
2023-04-05T05:01:34.280Z,100825.64
2023-04-05T05:04:04.296Z,100828.13
2023-04-05T05:06:32.705Z,100827.85
2023-04-05T05:09:01.387Z,100827.40
2023-04-05T05:11:29.762Z,100821.98
2023-04-05T05:13:59.142Z,100819.09
2023-04-05T05:16:28.221Z,100815.38
2023-04-05T05:18:56.604Z,100818.36
2023-04-05T05:21:25.128Z,100825.48
2023-04-05T05:23:53.473Z,100827.11
2023-04-05T05:26:21.741Z,100829.61
2023-04-05T05:28:50.201Z,100835.39
2023-04-05T05:31:19.497Z,100838.76
2023-04-05T05:33:50.080Z,100838.86
2023-04-05T05:36:19.991Z,100838.73
2023-04-05T05:38:49.125Z,100835.85
2023-04-05T05:41:17.532Z,100836.19
2023-04-05T05:43:46.016Z,100833.33
2023-04-05T05:46:14.702Z,100833.73
2023-04-05T05:48:43.081Z,100834.63
2023-04-05T05:51:11.653Z,100834.27
2023-04-05T05:53:40.481Z,100832.48
2023-04-05T05:56:08.816Z,100832.88
2023-04-05T05:58:39.844Z,100833.61
2023-04-05T06:01:08.755Z,100833.09
2023-04-05T06:03:37.449Z,100832.59
2023-04-05T06:06:08.472Z,100827.27
2023-04-05T06:08:38.300Z,100832.14
2023-04-05T06:11:06.989Z,100830.85
2023-04-05T06:13:35.444Z,100827.48
2023-04-05T06:18:42.192Z,100822.02
2023-04-05T06:21:12.403Z,100819.86
2023-04-05T06:23:52.432Z,100819.74
2023-04-05T06:26:31.436Z,100821.52
2023-04-05T06:29:21.247Z,100824.21
2023-04-05T06:31:49.968Z,100824.33
2023-04-05T06:34:26.948Z,100824.15
2023-04-05T06:37:12.655Z,100829.91
2023-04-05T06:39:44.709Z,100833.44
2023-04-05T06:42:13.186Z,100834.63
2023-04-05T06:44:48.732Z,100836.70
2023-04-05T06:47:19.878Z,100830.90
2023-04-05T06:50:23.356Z,100827.52
2023-04-05T06:52:51.940Z,100824.91
2023-04-05T06:55:20.645Z,100822.98
2023-04-05T06:57:52.958Z,100823.02
2023-04-05T07:00:21.811Z,100822.35
2023-04-05T07:04:19.923Z,100821.90
2023-04-05T07:06:48.307Z,100820.52
2023-04-05T07:09:17.161Z,100818.75
2023-04-05T07:11:45.687Z,100818.41
2023-04-05T07:14:14.220Z,100816.16
2023-04-05T07:16:42.704Z,100818.97
2023-04-05T07:19:11.393Z,100817.08
2023-04-05T07:21:39.917Z,100821.73
2023-04-05T07:24:08.905Z,100821.25
2023-04-05T07:26:37.826Z,100823.36
2023-04-05T07:29:10.059Z,100824.23
2023-04-05T07:31:40.016Z,100825.56
2023-04-05T07:34:08.464Z,100824.31
2023-04-05T07:36:37.361Z,100825.56
2023-04-05T07:39:05.917Z,100825.10
2023-04-05T07:41:37.783Z,100827.05
2023-04-05T07:44:06.636Z,100830.63
2023-04-05T07:46:36.381Z,100827.38
2023-04-05T07:49:04.902Z,100832.45
2023-04-05T07:51:41.209Z,100830.37
2023-04-05T07:54:10.178Z,100830.35
2023-04-05T07:56:38.574Z,100835.22
2023-04-05T07:59:06.965Z,100833.49
2023-04-05T08:01:35.406Z,100837.64
2023-04-05T08:04:03.866Z,100838.41
2023-04-05T08:06:32.249Z,100839.75
2023-04-05T08:09:00.587Z,100838.89
2023-04-05T08:11:28.936Z,100841.46
2023-04-05T08:13:57.882Z,100837.46
2023-04-05T08:19:40.979Z,100845.62
2023-04-05T08:22:30.440Z,100842.27
2023-04-05T08:25:01.190Z,100845.38
2023-04-05T08:27:29.706Z,100841.30
2023-04-05T08:29:58.022Z,100841.79
2023-04-05T08:32:26.402Z,100842.80
2023-04-05T08:34:54.824Z,100839.05
2023-04-05T08:37:23.157Z,100838.14
2023-04-05T08:39:51.460Z,100834.09
2023-04-05T08:42:31.986Z,100830.73
2023-04-05T08:45:04.274Z,100828.77
2023-04-05T08:47:36.785Z,100830.89
2023-04-05T08:50:06.280Z,100829.97
2023-04-05T08:52:38.143Z,100832.45
2023-04-05T08:55:07.023Z,100829.56
2023-04-05T08:57:39.399Z,100828.05
2023-04-05T09:00:09.522Z,100831.22
2023-04-05T09:02:38.993Z,100828.41
2023-04-05T09:05:10.878Z,100826.08
2023-04-05T09:07:40.836Z,100822.62
2023-04-05T09:10:09.365Z,100823.89
2023-04-05T09:12:38.642Z,100820.86
2023-04-05T09:15:07.593Z,100818.65
2023-04-05T09:17:39.263Z,100821.39
2023-04-05T09:20:08.041Z,100824.27
2023-04-05T09:22:47.535Z,100817.52
2023-04-05T09:25:39.551Z,100815.29
2023-04-05T09:28:13.318Z,100813.00
2023-04-05T09:30:47.237Z,100811.91
2023-04-05T09:33:25.620Z,100813.26
2023-04-05T09:35:55.602Z,100809.95
2023-04-05T09:38:44.659Z,100806.85
2023-04-05T09:41:13.073Z,100805.77
2023-04-05T09:43:42.682Z,100807.95
2023-04-05T09:46:32.007Z,100805.92
2023-04-05T09:49:02.472Z,100806.40
2023-04-05T09:51:38.859Z,100805.73
2023-04-05T09:54:11.323Z,100803.30
2023-04-05T09:56:42.001Z,100800.46
2023-04-05T09:59:12.864Z,100802.98
2023-04-05T10:01:45.121Z,100801.10
2023-04-05T10:04:14.382Z,100794.67
2023-04-05T10:06:43.065Z,100795.54
2023-04-05T10:09:16.571Z,100790.55
2023-04-05T10:11:45.969Z,100792.06
2023-04-05T10:14:14.837Z,100789.41
2023-04-05T10:17:28.069Z,100792.04
2023-04-05T10:20:18.466Z,100788.99
2023-04-05T10:22:59.869Z,100786.68
2023-04-05T10:25:31.146Z,100783.15
2023-04-05T10:34:41.671Z,100786.81
2023-04-05T10:37:37.400Z,100781.95
2023-04-05T10:40:09.912Z,100785.31
2023-04-05T10:42:46.629Z,100784.10
2023-04-05T10:45:23.325Z,100781.52
2023-04-05T10:48:21.637Z,100780.95
2023-04-05T10:50:50.859Z,100776.36
2023-04-05T10:53:22.151Z,100773.74
2023-04-05T10:55:51.067Z,100776.14
2023-04-05T10:58:20.663Z,100768.81
2023-04-05T11:00:51.069Z,100761.39
2023-04-05T11:03:44.949Z,100754.27
2023-04-05T11:06:44.025Z,100755.80
2023-04-05T11:09:20.317Z,100751.21
2023-04-05T11:11:52.023Z,100745.67
2023-04-05T11:14:36.023Z,100748.70
2023-04-05T11:17:05.032Z,100749.59
2023-04-05T11:19:47.901Z,100741.92
2023-04-05T11:22:27.663Z,100732.02
2023-04-05T11:25:02.028Z,100725.06
2023-04-05T11:27:33.962Z,100723.20
2023-04-05T11:30:05.487Z,100723.11
2023-04-05T11:32:47.141Z,100726.72
2023-04-05T11:35:22.965Z,100721.80
2023-04-05T11:38:00.961Z,100722.62
2023-04-05T11:40:41.036Z,100720.67
2023-04-05T11:43:12.596Z,100716.48
2023-04-05T11:45:44.554Z,100719.61
2023-04-05T11:48:14.445Z,100719.02
2023-04-05T11:50:43.020Z,100723.45
2023-04-05T11:53:20.046Z,100718.38
2023-04-05T11:55:51.795Z,100723.70
2023-04-05T11:58:24.205Z,100724.30
2023-04-05T12:01:01.379Z,100723.11
2023-04-05T12:03:31.190Z,100723.71
2023-04-05T12:06:03.622Z,100719.81
2023-04-05T12:08:49.885Z,100724.22
2023-04-05T12:11:27.235Z,100728.48
2023-04-05T12:14:02.503Z,100729.00
2023-04-05T12:16:30.985Z,100729.97
2023-04-05T12:19:00.939Z,100741.60
2023-04-05T12:21:29.452Z,100739.19
2023-04-05T12:23:58.816Z,100742.29
2023-04-05T12:26:28.682Z,100734.81
2023-04-05T12:29:00.397Z,100741.23
2023-04-05T12:31:46.947Z,100737.80
2023-04-05T12:34:15.992Z,100730.10
2023-04-05T12:36:46.714Z,100725.21
2023-04-05T12:39:17.683Z,100717.80
2023-04-05T12:42:18.948Z,100712.09
2023-04-05T12:45:06.363Z,100704.96
2023-04-05T12:47:48.624Z,100704.43
2023-04-05T12:50:18.883Z,100701.48
2023-04-05T12:52:56.350Z,100701.02
2023-04-05T12:55:27.188Z,100703.80
2023-04-05T12:58:04.894Z,100706.37
2023-04-05T13:00:33.801Z,100705.11
2023-04-05T13:03:02.208Z,100706.95
2023-04-05T13:05:31.303Z,100705.70
2023-04-05T13:08:00.356Z,100709.58
2023-04-05T13:10:28.893Z,100711.36
2023-04-05T13:12:57.457Z,100713.27
2023-04-05T13:15:25.821Z,100711.22
2023-04-05T13:17:55.157Z,100716.55
2023-04-05T13:20:23.951Z,100712.69
2023-04-05T13:22:52.531Z,100707.35
2023-04-05T13:25:20.994Z,100700.09
2023-04-05T13:27:50.085Z,100698.33
2023-04-05T13:30:18.982Z,100697.00
2023-04-05T13:32:47.440Z,100690.80
2023-04-05T13:35:16.142Z,100688.64
2023-04-05T13:37:44.595Z,100683.88
2023-04-05T13:40:13.113Z,100679.14
2023-04-05T13:42:41.438Z,100678.06
2023-04-05T13:45:10.529Z,100676.44
2023-04-05T13:47:38.892Z,100679.90
2023-04-05T13:50:08.305Z,100682.90
2023-04-05T13:52:37.798Z,100683.67
2023-04-05T13:55:06.695Z,100681.25
2023-04-05T13:57:35.058Z,100687.31
2023-04-05T14:00:04.085Z,100692.04
2023-04-05T14:02:32.949Z,100693.60
2023-04-05T14:05:01.429Z,100701.69
2023-04-05T14:07:30.046Z,100698.86
2023-04-05T14:09:58.473Z,100697.90
2023-04-05T14:12:26.923Z,100708.55
2023-04-05T14:14:55.301Z,100709.80
2023-04-05T14:17:23.654Z,100715.15
2023-04-05T14:19:52.044Z,100717.35
2023-04-05T14:22:21.615Z,100712.82
2023-04-05T14:24:50.017Z,100715.95
2023-04-05T14:27:18.475Z,100714.29
2023-04-05T14:29:47.240Z,100709.50
2023-04-05T14:32:15.923Z,100703.94
2023-04-05T14:34:44.275Z,100703.55
2023-04-05T14:37:12.613Z,100702.45
2023-04-05T14:39:41.178Z,100701.33
2023-04-05T14:42:09.689Z,100698.87
2023-04-05T14:44:38.954Z,100703.29
2023-04-05T14:47:07.312Z,100700.75
2023-04-05T14:49:35.691Z,100704.98
2023-04-05T14:52:04.348Z,100698.63
2023-04-05T14:54:32.764Z,100698.14
2023-04-05T14:57:01.093Z,100695.11
2023-04-05T14:59:29.983Z,100698.09
2023-04-05T15:01:58.623Z,100697.89
2023-04-05T15:04:28.392Z,100696.52
2023-04-05T15:06:56.788Z,100696.81
2023-04-05T15:09:25.177Z,100694.55
2023-04-05T15:11:55.414Z,100687.29
2023-04-05T15:14:31.739Z,100686.64
2023-04-05T15:17:00.863Z,100686.67
2023-04-05T15:19:30.632Z,100681.17
2023-04-05T15:21:59.069Z,100681.21
2023-04-05T15:24:27.554Z,100674.84
2023-04-05T15:27:02.014Z,100674.55
2023-04-05T15:29:31.991Z,100678.34
2023-04-05T15:32:02.964Z,100677.69
2023-04-05T15:34:32.184Z,100676.34
2023-04-05T15:37:00.513Z,100674.92
2023-04-05T15:39:28.923Z,100673.34
2023-04-05T15:41:57.921Z,100672.63
2023-04-05T15:44:26.798Z,100668.27
2023-04-05T15:46:55.258Z,100669.63
2023-04-05T15:49:23.629Z,100667.54
2023-04-05T15:51:52.102Z,100661.29
2023-04-05T15:54:21.191Z,100665.94
2023-04-05T15:56:49.760Z,100665.02
2023-04-05T15:59:18.477Z,100664.57
2023-04-05T16:01:47.238Z,100664.73
2023-04-05T16:04:16.099Z,100661.02
2023-04-05T16:06:44.545Z,100663.38
2023-04-05T16:09:13.016Z,100663.20
2023-04-05T16:11:41.496Z,100661.67
2023-04-05T16:14:11.431Z,100668.99
2023-04-05T16:16:50.503Z,100669.76
2023-04-05T16:19:24.600Z,100667.96
2023-04-05T16:21:53.503Z,100664.90
2023-04-05T16:24:22.032Z,100666.84
2023-04-05T16:26:50.426Z,100667.85
2023-04-05T16:29:19.162Z,100669.88
2023-04-05T16:31:47.825Z,100670.35
2023-04-05T16:34:16.512Z,100675.59
2023-04-05T16:36:44.964Z,100675.11
2023-04-05T16:39:13.389Z,100671.17
2023-04-05T16:41:41.910Z,100672.39
2023-04-05T16:44:10.445Z,100676.80
2023-04-05T16:46:40.118Z,100676.55
2023-04-05T16:49:08.617Z,100674.63
2023-04-05T16:51:37.308Z,100674.56
2023-04-05T16:54:05.912Z,100675.61
2023-04-05T16:56:34.404Z,100675.45
2023-04-05T16:59:05.069Z,100674.85
2023-04-05T17:01:35.560Z,100672.49
2023-04-05T17:04:04.011Z,100676.88
2023-04-05T17:06:32.608Z,100678.56
2023-04-05T17:09:01.312Z,100682.94
2023-04-05T17:11:30.038Z,100686.47
2023-04-05T17:13:59.617Z,100684.38
2023-04-05T17:16:28.369Z,100686.96
2023-04-05T17:18:56.883Z,100685.82
2023-04-05T17:21:26.047Z,100684.66
2023-04-05T17:25:54.389Z,100686.58
2023-04-05T17:28:22.829Z,100690.38
2023-04-05T17:30:51.402Z,100688.85
2023-04-05T17:33:19.749Z,100694.05
2023-04-05T17:35:49.094Z,100699.62
2023-04-05T17:38:17.474Z,100702.45
2023-04-05T17:40:53.165Z,100703.58
2023-04-05T17:43:21.619Z,100707.27
2023-04-05T17:45:50.332Z,100710.70
2023-04-05T17:48:19.205Z,100714.27
2023-04-05T17:50:47.664Z,100723.09
2023-04-05T17:53:16.699Z,100721.31
2023-04-05T17:55:45.149Z,100725.54
2023-04-05T17:58:13.688Z,100727.38
2023-04-05T18:00:42.245Z,100729.88
2023-04-05T18:03:12.962Z,100733.66
2023-04-05T18:05:41.835Z,100735.41
2023-04-05T18:08:10.186Z,100734.33
2023-04-05T18:10:38.560Z,100741.64
2023-04-05T18:13:06.941Z,100742.30
2023-04-05T18:15:35.566Z,100746.22
2023-04-05T18:18:04.303Z,100749.78
2023-04-05T18:20:33.168Z,100750.02
2023-04-05T18:23:01.508Z,100754.42
2023-04-05T18:25:29.888Z,100756.42
2023-04-05T18:27:58.304Z,100754.83
2023-04-05T18:30:26.687Z,100755.96
2023-04-05T18:32:55.151Z,100755.49
2023-04-05T18:35:23.577Z,100757.61
2023-04-05T18:37:52.026Z,100759.13
2023-04-05T18:40:21.023Z,100759.86
2023-04-05T18:42:49.479Z,100764.91
2023-04-05T18:45:18.505Z,100773.96
2023-04-05T18:47:46.884Z,100777.46
2023-04-05T18:50:15.667Z,100774.70
2023-04-05T18:52:44.137Z,100778.10
2023-04-05T18:55:14.033Z,100778.31
2023-04-05T18:57:42.467Z,100777.70
2023-04-05T19:00:11.665Z,100779.98
2023-04-05T19:02:41.117Z,100776.45
2023-04-05T19:05:10.354Z,100776.11
2023-04-05T19:07:38.791Z,100779.19
2023-04-05T19:10:08.124Z,100777.44
2023-04-05T19:12:36.550Z,100778.05
2023-04-05T19:15:05.684Z,100780.76
2023-04-05T19:17:34.211Z,100785.19
2023-04-05T19:20:03.042Z,100783.77
2023-04-05T19:22:31.435Z,100780.58
2023-04-05T19:25:01.077Z,100783.56
2023-04-05T19:27:34.391Z,100780.51
2023-04-05T19:30:04.086Z,100779.19
2023-04-05T19:32:32.455Z,100777.70
2023-04-05T19:35:01.137Z,100775.68
2023-04-05T19:37:30.733Z,100779.68
2023-04-05T19:39:59.085Z,100781.45
2023-04-05T19:42:27.624Z,100780.19
2023-04-05T19:44:58.074Z,100777.33
2023-04-05T19:47:26.983Z,100774.39
2023-04-05T19:49:57.220Z,100773.70
2023-04-05T19:52:47.996Z,100771.09
2023-04-05T19:55:31.201Z,100769.71
2023-04-05T19:58:01.892Z,100769.20
2023-04-05T20:00:48.629Z,100767.60
2023-04-05T20:03:38.509Z,100770.42
2023-04-05T20:06:08.878Z,100763.23
2023-04-05T20:08:39.772Z,100766.90
2023-04-05T20:11:13.145Z,100764.85
2023-04-05T20:13:57.260Z,100767.79
2023-04-05T20:16:34.209Z,100764.00
2023-04-05T20:19:07.044Z,100765.01
2023-04-05T20:21:39.749Z,100760.13
2023-04-05T20:24:12.926Z,100753.52
2023-04-05T20:26:41.414Z,100754.04
2023-04-05T20:29:10.193Z,100752.13
2023-04-05T20:31:40.129Z,100747.68
2023-04-05T20:34:19.674Z,100749.25
2023-04-05T20:36:54.726Z,100750.86
2023-04-05T20:39:23.942Z,100744.51
2023-04-05T20:41:52.689Z,100744.35
2023-04-05T20:44:21.536Z,100740.73
2023-04-05T20:46:53.234Z,100737.84
2023-04-05T20:49:24.339Z,100736.43
2023-04-05T20:51:54.989Z,100732.10
2023-04-05T20:54:24.302Z,100732.59
2023-04-05T20:56:53.208Z,100728.27
2023-04-05T20:59:21.703Z,100728.10
2023-04-05T21:01:50.675Z,100728.96
2023-04-05T21:04:19.086Z,100726.21
2023-04-05T21:06:47.514Z,100728.95
2023-04-05T21:09:15.978Z,100728.42
2023-04-05T21:11:44.399Z,100728.27
2023-04-05T21:14:12.924Z,100728.97
2023-04-05T21:16:41.450Z,100730.23
2023-04-05T21:19:10.001Z,100729.67
2023-04-05T21:21:38.507Z,100733.46
2023-04-05T21:24:06.947Z,100731.60
2023-04-05T21:26:35.403Z,100731.46
2023-04-05T21:29:03.720Z,100735.09
2023-04-05T21:31:32.145Z,100734.92
2023-04-05T21:34:00.613Z,100734.04
2023-04-05T21:36:29.258Z,100736.23
2023-04-05T21:38:57.603Z,100738.03
2023-04-05T21:41:26.062Z,100735.51
2023-04-05T21:43:54.496Z,100735.30
2023-04-05T21:46:22.867Z,100733.55
2023-04-05T21:48:51.232Z,100739.33
2023-04-05T21:51:19.765Z,100739.98
2023-04-05T21:53:48.196Z,100734.77
2023-04-05T21:56:16.728Z,100734.05
2023-04-05T21:58:45.153Z,100734.92
2023-04-05T22:01:13.790Z,100732.12
2023-04-05T22:03:42.161Z,100737.89
2023-04-05T22:06:10.768Z,100735.23
2023-04-05T22:08:39.179Z,100732.38
2023-04-05T22:11:08.241Z,100729.73
2023-04-05T22:13:36.538Z,100733.61
2023-04-05T22:16:05.195Z,100730.45
2023-04-05T22:18:33.627Z,100732.39
2023-04-05T22:21:02.004Z,100736.58
2023-04-05T22:23:30.615Z,100738.86
2023-04-05T22:25:58.996Z,100736.02
2023-04-05T22:28:27.433Z,100737.46
2023-04-05T22:30:55.817Z,100734.63
2023-04-05T22:33:24.089Z,100732.98
2023-04-05T22:35:52.522Z,100736.48
2023-04-05T22:38:21.310Z,100738.27
2023-04-05T22:40:49.727Z,100740.05
2023-04-05T22:43:18.207Z,100736.16
2023-04-05T22:45:49.776Z,100739.44
2023-04-05T22:48:18.427Z,100736.19
2023-04-05T22:50:46.794Z,100737.41
2023-04-05T22:53:15.427Z,100739.84
2023-04-05T22:55:43.833Z,100738.46
2023-04-05T22:58:12.506Z,100734.39
2023-04-05T23:00:40.845Z,100736.98
2023-04-05T23:03:09.949Z,100735.77
2023-04-05T23:05:38.616Z,100735.61
2023-04-05T23:08:06.953Z,100737.83
2023-04-05T23:10:35.510Z,100737.00
2023-04-05T23:13:03.858Z,100741.64
2023-04-05T23:15:32.414Z,100736.15
2023-04-05T23:18:00.820Z,100743.23
2023-04-05T23:20:29.242Z,100739.48
2023-04-05T23:22:58.164Z,100742.95
2023-04-05T23:25:26.545Z,100741.25
2023-04-05T23:27:55.022Z,100741.13
2023-04-05T23:30:23.412Z,100739.30
2023-04-05T23:32:51.904Z,100736.11
2023-04-05T23:35:21.295Z,100734.12
2023-04-05T23:37:49.843Z,100733.33
2023-04-05T23:40:18.192Z,100733.73
2023-04-05T23:42:46.586Z,100732.08
2023-04-05T23:45:15.618Z,100731.96
2023-04-05T23:47:43.994Z,100730.98
2023-04-05T23:50:12.348Z,100729.48
2023-04-05T23:52:40.836Z,100729.73
2023-04-05T23:55:09.653Z,100732.18
2023-04-05T23:57:38.008Z,100732.75
